createdAt,value
2018-11-07T00:00:31.451Z,16.45
2018-11-07T00:03:03.528Z,16.27
2018-11-07T00:05:35.448Z,15.23
2018-11-07T00:08:08.517Z,16.67
2018-11-07T00:10:55.170Z,13.13
2018-11-07T00:13:27.641Z,18.23
2018-11-07T00:15:59.640Z,16.75
2018-11-07T00:18:31.482Z,17.70
2018-11-07T00:21:03.465Z,17.67
2018-11-07T00:23:35.362Z,13.55
2018-11-07T00:26:07.202Z,14.20
2018-11-07T00:28:39.088Z,10.82
2018-11-07T00:31:11.031Z,15.32
2018-11-07T00:33:43.251Z,13.62
2018-11-07T00:36:15.141Z,14.05
2018-11-07T00:38:47.007Z,13.03
2018-11-07T00:41:18.824Z,21.48
2018-11-07T00:43:50.682Z,17.75
2018-11-07T00:46:22.599Z,19.25
2018-11-07T00:48:54.440Z,21.73
2018-11-07T00:51:26.364Z,14.63
2018-11-07T00:53:58.201Z,18.50
2018-11-07T00:56:30.059Z,17.73
2018-11-07T00:59:01.931Z,17.73
2018-11-07T01:01:33.850Z,18.90
2018-11-07T01:04:05.740Z,14.50
2018-11-07T01:06:37.639Z,17.17
2018-11-07T01:09:12.322Z,16.77
2018-11-07T01:11:44.267Z,25.40
2018-11-07T01:14:16.155Z,16.80
2018-11-07T01:16:48.095Z,20.43
2018-11-07T01:19:19.846Z,17.73
2018-11-07T01:21:51.713Z,17.07
2018-11-07T01:24:23.627Z,15.45
2018-11-07T01:26:55.500Z,19.15
2018-11-07T01:29:27.423Z,21.33
2018-11-07T01:31:59.294Z,14.78
2018-11-07T01:34:31.131Z,20.25
2018-11-07T01:37:03.024Z,17.02
2018-11-07T01:39:35.419Z,14.50
2018-11-07T01:42:07.413Z,17.80
2018-11-07T01:44:39.190Z,19.40
2018-11-07T01:47:11.034Z,17.17
2018-11-07T01:49:42.961Z,15.93
2018-11-07T01:52:14.881Z,15.55
2018-11-07T01:54:46.785Z,14.58
2018-11-07T01:57:18.585Z,14.53
2018-11-07T01:59:50.394Z,19.05
2018-11-07T02:02:22.199Z,19.20
2018-11-07T02:04:54.110Z,18.17
2018-11-07T02:07:26.000Z,20.62
2018-11-07T02:09:57.899Z,17.60
2018-11-07T02:12:29.754Z,19.67
2018-11-07T02:15:01.893Z,18.48
2018-11-07T02:17:33.801Z,21.90
2018-11-07T02:20:06.319Z,22.82
2018-11-07T02:22:38.259Z,22.80
2018-11-07T02:25:10.180Z,33.50
2018-11-07T02:27:42.081Z,17.60
2018-11-07T02:30:15.247Z,19.80
2018-11-07T02:32:47.085Z,20.60
2018-11-07T02:35:18.909Z,17.00
2018-11-07T02:37:50.811Z,21.25
2018-11-07T02:40:22.686Z,21.07
2018-11-07T02:42:54.620Z,20.05
2018-11-07T02:45:26.455Z,18.37
2018-11-07T02:47:58.339Z,16.80
2018-11-07T02:50:30.453Z,13.72
2018-11-07T02:53:02.321Z,16.23
2018-11-07T02:55:34.302Z,14.68
2018-11-07T02:58:06.280Z,14.55
2018-11-07T03:00:38.185Z,13.78
2018-11-07T03:03:10.075Z,11.03
2018-11-07T03:05:41.994Z,12.33
2018-11-07T03:08:13.940Z,17.02
2018-11-07T03:10:45.886Z,15.30
2018-11-07T03:13:17.722Z,15.28
2018-11-07T03:15:49.576Z,17.07
2018-11-07T03:18:21.442Z,18.45
2018-11-07T03:20:53.333Z,15.68
2018-11-07T03:23:25.212Z,16.80
2018-11-07T03:25:57.368Z,15.13
2018-11-07T03:28:29.239Z,17.12
2018-11-07T03:31:01.158Z,14.47
2018-11-07T03:33:33.025Z,14.28
2018-11-07T03:36:04.922Z,16.02
2018-11-07T03:38:36.762Z,16.95
2018-11-07T03:41:08.579Z,14.18
2018-11-07T03:43:40.479Z,15.72
2018-11-07T03:46:12.344Z,14.43
2018-11-07T03:48:44.216Z,13.50
2018-11-07T03:51:16.043Z,14.38
2018-11-07T03:53:47.886Z,13.15
2018-11-07T03:56:19.750Z,14.93
2018-11-07T03:58:51.639Z,11.68
2018-11-07T04:01:23.514Z,22.20
2018-11-07T04:03:55.432Z,13.83
2018-11-07T04:06:27.271Z,13.03
2018-11-07T04:08:59.130Z,15.43
2018-11-07T04:11:30.972Z,20.52
2018-11-07T04:14:02.832Z,14.33
2018-11-07T04:16:34.698Z,13.88
2018-11-07T04:19:07.267Z,15.43
2018-11-07T04:21:39.166Z,12.78
2018-11-07T04:24:11.016Z,14.78
2018-11-07T04:26:42.901Z,12.55
2018-11-07T04:29:14.752Z,15.88
2018-11-07T04:31:46.659Z,17.42
2018-11-07T04:34:18.490Z,13.88
2018-11-07T04:36:50.359Z,14.35
2018-11-07T04:39:22.223Z,16.30
2018-11-07T04:41:54.167Z,12.85
2018-11-07T04:44:26.076Z,14.87
2018-11-07T04:46:57.962Z,14.90
2018-11-07T04:49:29.864Z,13.45
2018-11-07T04:52:01.734Z,14.60
2018-11-07T04:54:38.593Z,15.90
2018-11-07T04:57:10.466Z,13.15
2018-11-07T04:59:42.362Z,14.43
2018-11-07T05:02:14.522Z,14.75
2018-11-07T05:04:46.471Z,15.70
2018-11-07T05:07:18.334Z,18.20
2018-11-07T05:09:50.236Z,17.48
2018-11-07T05:12:22.052Z,13.53
2018-11-07T05:14:53.898Z,15.15
2018-11-07T05:17:25.786Z,15.13
2018-11-07T05:19:57.687Z,17.95
2018-11-07T05:22:29.548Z,14.87
2018-11-07T05:25:01.400Z,13.78
2018-11-07T05:27:33.412Z,12.05
2018-11-07T05:30:06.096Z,12.75
2018-11-07T05:32:38.001Z,10.70
2018-11-07T05:35:09.863Z,13.93
2018-11-07T05:37:41.745Z,16.05
2018-11-07T05:40:13.631Z,13.70
2018-11-07T05:42:45.580Z,16.15
2018-11-07T05:45:17.420Z,15.65
2018-11-07T05:47:49.289Z,14.87
2018-11-07T05:50:21.179Z,13.25
2018-11-07T05:52:53.164Z,14.40
2018-11-07T05:55:25.044Z,18.62
2018-11-07T05:57:57.033Z,13.58
2018-11-07T06:00:28.875Z,17.65
2018-11-07T06:03:00.710Z,17.42
2018-11-07T06:05:32.562Z,16.65
2018-11-07T06:08:04.471Z,26.95
2018-11-07T06:10:36.379Z,15.78
2018-11-07T06:13:08.245Z,17.35
2018-11-07T06:15:40.135Z,17.37
2018-11-07T06:18:11.945Z,18.73
2018-11-07T06:20:43.915Z,18.77
2018-11-07T06:23:15.855Z,17.02
2018-11-07T06:25:47.754Z,18.98
2018-11-07T06:28:19.603Z,17.20
2018-11-07T06:30:51.448Z,18.15
2018-11-07T06:33:23.418Z,19.50
2018-11-07T06:35:55.270Z,19.25
2018-11-07T06:38:27.136Z,26.48
2018-11-07T06:40:59.023Z,19.62
2018-11-07T06:43:30.840Z,20.55
2018-11-07T06:46:02.701Z,16.77
2018-11-07T07:10:21.627Z,19.15
2018-11-07T07:12:53.558Z,21.57
2018-11-07T07:15:25.422Z,20.08
2018-11-07T07:17:57.395Z,19.82
2018-11-07T07:20:29.214Z,17.48
2018-11-07T07:23:01.070Z,19.80
2018-11-07T07:25:32.931Z,19.35
2018-11-07T07:28:05.447Z,21.20
2018-11-07T07:30:37.341Z,23.80
2018-11-07T07:33:09.334Z,20.37
2018-11-07T07:35:41.170Z,20.95
2018-11-07T07:38:13.053Z,22.52
2018-11-07T07:40:45.026Z,17.65
2018-11-07T07:43:17.006Z,17.92
2018-11-07T07:45:49.027Z,19.55
2018-11-07T07:48:20.887Z,26.73
2018-11-07T07:50:52.722Z,20.70
2018-11-07T07:53:24.608Z,13.72
2018-11-07T07:55:56.504Z,23.38
2018-11-07T07:58:28.360Z,16.20
2018-11-07T08:01:00.265Z,14.23
2018-11-07T08:03:32.119Z,17.40
2018-11-07T08:06:03.952Z,23.25
2018-11-07T08:08:35.907Z,19.10
2018-11-07T08:11:07.766Z,15.28
2018-11-07T08:13:39.796Z,15.70
2018-11-07T08:16:11.601Z,15.15
2018-11-07T08:18:43.463Z,17.73
2018-11-07T08:21:15.510Z,18.32
2018-11-07T08:23:47.416Z,15.63
2018-11-07T08:26:19.281Z,15.00
2018-11-07T08:28:51.156Z,14.47
2018-11-07T08:31:23.123Z,11.08
2018-11-07T08:33:55.319Z,14.25
2018-11-07T08:36:27.214Z,9.40
2018-11-07T08:38:59.053Z,12.47
2018-11-07T08:41:30.897Z,15.70
2018-11-07T08:44:02.781Z,10.82
2018-11-07T08:46:34.765Z,14.03
2018-11-07T08:49:06.667Z,11.93
2018-11-07T08:51:38.601Z,13.37
2018-11-07T08:54:10.450Z,11.83
2018-11-07T08:56:42.279Z,12.03
2018-11-07T08:59:14.213Z,10.50
2018-11-07T09:01:46.202Z,13.67
2018-11-07T09:04:18.164Z,11.47
2018-11-07T09:06:50.041Z,9.40
2018-11-07T09:09:21.957Z,11.37
2018-11-07T09:11:53.924Z,9.00
2018-11-07T09:14:25.935Z,10.73
2018-11-07T09:16:57.804Z,9.40
2018-11-07T09:19:29.665Z,9.40
2018-11-07T09:22:01.555Z,11.77
2018-11-07T09:24:33.524Z,10.60
2018-11-07T09:27:05.442Z,10.43
2018-11-07T09:29:37.280Z,8.93
2018-11-07T09:32:09.192Z,12.07
2018-11-07T09:34:41.081Z,10.40
2018-11-07T09:37:12.943Z,8.87
2018-11-07T09:39:44.906Z,10.27
2018-11-07T09:42:16.854Z,12.90
2018-11-07T09:44:48.833Z,9.87
2018-11-07T09:47:20.803Z,9.73
2018-11-07T09:49:52.664Z,9.23
2018-11-07T09:52:24.553Z,9.83
2018-11-07T09:54:56.502Z,9.00
2018-11-07T09:57:28.487Z,8.80
2018-11-07T10:00:00.388Z,7.97
2018-11-07T10:02:32.263Z,9.10
2018-11-07T10:05:05.263Z,9.83
2018-11-07T10:07:38.628Z,8.53
2018-11-07T10:10:12.285Z,10.47
2018-11-07T10:12:44.719Z,9.33
2018-11-07T10:15:17.100Z,12.53
2018-11-07T10:17:48.935Z,8.37
2018-11-07T10:20:22.242Z,7.47
2018-11-07T10:22:54.164Z,7.43
2018-11-07T10:25:26.092Z,8.13
2018-11-07T10:27:58.422Z,8.30
2018-11-07T10:30:29.971Z,7.23
2018-11-07T10:33:01.924Z,6.37
2018-11-07T10:35:33.837Z,10.23
2018-11-07T10:38:05.903Z,6.80
2018-11-07T10:40:37.700Z,6.93
2018-11-07T10:43:09.571Z,6.33
2018-11-07T10:45:41.417Z,7.67
2018-11-07T10:48:13.219Z,7.80
2018-11-07T10:50:45.146Z,12.07
2018-11-07T10:53:17.035Z,8.67
2018-11-07T10:55:48.856Z,5.77
2018-11-07T10:58:20.798Z,5.67
2018-11-07T11:00:58.272Z,6.93
2018-11-07T11:03:31.249Z,8.10
2018-11-07T11:06:03.121Z,8.57
2018-11-07T11:08:35.031Z,6.30
2018-11-07T11:11:07.006Z,7.20
2018-11-07T11:13:38.963Z,7.07
2018-11-07T11:16:10.791Z,6.60
2018-11-07T11:18:42.685Z,6.80
2018-11-07T11:21:14.482Z,8.70
2018-11-07T11:23:46.367Z,6.83
2018-11-07T11:26:18.228Z,7.33
2018-11-07T11:28:50.059Z,9.33
2018-11-07T11:31:21.957Z,6.10
2018-11-07T11:33:53.872Z,8.60
2018-11-07T11:36:25.711Z,7.53
2018-11-07T11:38:57.512Z,7.17
2018-11-07T11:41:29.354Z,8.17
2018-11-07T11:44:01.201Z,6.77
2018-11-07T11:46:33.099Z,12.60
2018-11-07T11:49:05.261Z,9.00
2018-11-07T11:51:37.100Z,7.13
2018-11-07T11:54:08.950Z,7.53
2018-11-07T11:56:40.811Z,6.43
2018-11-07T11:59:12.901Z,6.67
2018-11-07T12:01:44.635Z,7.10
2018-11-07T12:04:16.505Z,8.27
2018-11-07T12:06:48.427Z,9.43
2018-11-07T12:09:20.314Z,6.57
2018-11-07T12:11:52.159Z,17.20
2018-11-07T12:14:24.002Z,6.30
2018-11-07T12:16:55.863Z,8.67
2018-11-07T12:19:27.787Z,8.53
2018-11-07T12:21:59.643Z,8.57
2018-11-07T12:24:31.484Z,7.07
2018-11-07T12:27:03.481Z,6.50
2018-11-07T12:29:35.282Z,6.97
2018-11-07T12:32:07.251Z,7.03
2018-11-07T12:34:39.084Z,6.60
2018-11-07T12:37:10.933Z,6.57
2018-11-07T12:39:42.792Z,6.63
2018-11-07T12:42:14.683Z,6.43
2018-11-07T12:44:46.530Z,6.07
2018-11-07T12:47:18.445Z,8.60
2018-11-07T12:49:50.332Z,7.47
2018-11-07T12:52:22.180Z,7.17
2018-11-07T12:54:54.093Z,8.20
2018-11-07T12:57:26.178Z,7.70
2018-11-07T12:59:57.885Z,7.60
2018-11-07T13:02:29.732Z,7.13
2018-11-07T13:05:01.661Z,8.30
2018-11-07T13:07:33.564Z,7.77
2018-11-07T13:10:06.735Z,5.87
2018-11-07T13:12:38.816Z,7.37
2018-11-07T13:15:11.477Z,5.83
2018-11-07T13:17:43.578Z,6.70
2018-11-07T13:20:17.007Z,6.73
2018-11-07T13:22:50.276Z,5.90
2018-11-07T13:25:22.729Z,9.93
2018-11-07T13:27:54.582Z,6.67
2018-11-07T13:30:26.497Z,7.23
2018-11-07T13:32:58.332Z,6.13
2018-11-07T13:35:30.139Z,8.53
2018-11-07T13:38:02.085Z,6.73
2018-11-07T13:40:33.833Z,7.90
2018-11-07T13:43:05.651Z,6.73
2018-11-07T13:45:37.509Z,12.93
2018-11-07T13:48:09.454Z,6.43
2018-11-07T13:50:41.353Z,5.43
2018-11-07T13:53:13.267Z,9.30
2018-11-07T13:55:45.134Z,6.77
2018-11-07T13:58:17.015Z,5.77
2018-11-07T14:00:48.899Z,6.33
2018-11-07T14:03:20.707Z,5.43
2018-11-07T14:05:52.568Z,5.90
2018-11-07T14:08:24.479Z,7.70
2018-11-07T14:10:56.365Z,7.60
2018-11-07T14:13:28.326Z,6.20
2018-11-07T14:16:00.276Z,7.20
2018-11-07T14:18:32.133Z,5.63
2018-11-07T14:21:04.380Z,6.40
2018-11-07T14:23:36.307Z,6.13
2018-11-07T14:26:08.259Z,7.30
2018-11-07T14:28:40.226Z,5.70
2018-11-07T14:31:12.141Z,6.20
2018-11-07T14:33:44.042Z,8.13
2018-11-07T14:36:15.974Z,8.10
2018-11-07T14:38:47.908Z,6.23
2018-11-07T14:41:19.683Z,5.87
2018-11-07T14:43:51.559Z,6.37
2018-11-07T14:46:23.411Z,7.40
2018-11-07T14:48:55.361Z,6.10
2018-11-07T14:51:27.349Z,11.07
2018-11-07T14:53:59.182Z,5.80
2018-11-07T14:56:31.056Z,5.70
2018-11-07T14:59:02.898Z,12.27
2018-11-07T15:01:34.825Z,6.80
2018-11-07T15:04:06.699Z,10.80
2018-11-07T15:06:38.616Z,6.90
2018-11-07T15:09:10.501Z,7.20
2018-11-07T15:11:42.352Z,8.07
2018-11-07T15:14:14.233Z,10.67
2018-11-07T15:16:46.172Z,11.27
2018-11-07T15:19:18.058Z,10.37
2018-11-07T15:21:49.913Z,6.70
2018-11-07T15:24:21.790Z,8.13
2018-11-07T15:29:16.344Z,6.30
2018-11-07T15:31:48.310Z,9.03
2018-11-07T15:34:20.704Z,18.40
2018-11-07T15:36:52.602Z,9.53
2018-11-07T15:39:24.454Z,7.63
2018-11-07T15:41:56.410Z,10.23
2018-11-07T15:44:28.257Z,7.33
2018-11-07T15:47:00.309Z,7.20
2018-11-07T15:49:32.192Z,6.93
2018-11-07T15:52:04.177Z,9.97
2018-11-07T15:54:36.162Z,6.93
2018-11-07T15:57:08.133Z,7.43
2018-11-07T15:59:39.965Z,5.43
2018-11-07T16:02:11.872Z,9.67
2018-11-07T16:04:43.775Z,8.90
2018-11-07T16:07:15.682Z,9.90
2018-11-07T16:09:47.576Z,12.80
2018-11-07T16:12:19.425Z,8.58
2018-11-07T16:14:51.273Z,9.80
2018-11-07T16:17:23.176Z,8.53
2018-11-07T16:19:55.107Z,8.45
2018-11-07T16:22:27.012Z,6.70
2018-11-07T16:24:58.919Z,6.77
2018-11-07T16:27:30.872Z,5.75
2018-11-07T16:30:03.019Z,10.07
2018-11-07T16:32:34.882Z,10.98
2018-11-07T16:35:07.087Z,5.80
2018-11-07T16:37:39.286Z,7.47
2018-11-07T16:40:12.669Z,5.75
2018-11-07T16:42:44.897Z,7.22
2018-11-07T16:45:17.482Z,5.90
2018-11-07T16:47:49.415Z,5.60
2018-11-07T16:50:21.359Z,9.50
2018-11-07T16:52:53.202Z,5.65
2018-11-07T16:55:25.132Z,6.35
2018-11-07T16:57:57.018Z,12.75
2018-11-07T17:00:28.908Z,12.55
2018-11-07T17:03:00.789Z,8.85
2018-11-07T17:05:32.687Z,6.45
2018-11-07T17:08:04.657Z,7.45
2018-11-07T17:10:36.669Z,7.37
2018-11-07T17:13:08.590Z,6.87
2018-11-07T17:15:40.468Z,5.10
2018-11-07T17:18:12.294Z,7.77
2018-11-07T17:20:44.186Z,5.75
2018-11-07T17:23:18.528Z,6.08
2018-11-07T17:25:47.989Z,7.53
2018-11-07T17:28:19.875Z,5.00
2018-11-07T17:30:51.790Z,6.62
2018-11-07T17:33:23.705Z,9.73
2018-11-07T17:35:55.641Z,6.85
2018-11-07T17:38:28.403Z,5.33
2018-11-07T17:41:00.221Z,5.03
2018-11-07T17:43:32.072Z,4.78
2018-11-07T17:46:04.092Z,6.33
2018-11-07T17:48:36.447Z,7.03
2018-11-07T17:51:08.338Z,9.08
2018-11-07T17:53:40.206Z,6.90
2018-11-07T17:56:12.063Z,6.05
2018-11-07T17:58:44.013Z,6.33
2018-11-07T18:01:15.921Z,5.40
2018-11-07T18:03:47.914Z,6.00
2018-11-07T18:06:19.754Z,4.78
2018-11-07T18:08:51.633Z,4.85
2018-11-07T18:11:23.527Z,3.80
2018-11-07T18:13:55.496Z,5.72
2018-11-07T18:16:27.340Z,7.22
2018-11-07T18:18:59.314Z,5.35
2018-11-07T18:21:31.199Z,5.10
2018-11-07T18:24:03.176Z,4.60
2018-11-07T18:26:35.067Z,8.00
2018-11-07T18:29:07.373Z,5.78
2018-11-07T18:31:39.257Z,5.03
2018-11-07T18:34:11.409Z,4.57
2018-11-07T18:36:43.346Z,5.25
2018-11-07T18:39:15.257Z,5.72
2018-11-07T18:41:47.132Z,4.83
2018-11-07T18:44:19.131Z,4.60
2018-11-07T18:46:50.968Z,5.62
2018-11-07T18:49:22.845Z,4.85
2018-11-07T18:51:54.760Z,6.55
2018-11-07T18:54:26.681Z,4.08
2018-11-07T18:56:58.578Z,6.03
2018-11-07T18:59:30.475Z,5.93
2018-11-07T19:02:02.389Z,4.75
2018-11-07T19:04:34.311Z,4.45
2018-11-07T19:07:06.252Z,5.13
2018-11-07T19:09:38.089Z,4.00
2018-11-07T19:12:10.039Z,3.73
2018-11-07T19:14:41.879Z,3.65
2018-11-07T19:17:13.711Z,5.07
2018-11-07T19:19:45.631Z,6.00
2018-11-07T19:22:17.653Z,6.70
2018-11-07T19:24:49.449Z,6.35
2018-11-07T19:27:21.426Z,7.15
2018-11-07T19:29:53.204Z,7.50
2018-11-07T19:32:25.107Z,3.53
2018-11-07T19:34:57.024Z,5.40
2018-11-07T19:37:28.967Z,4.80
2018-11-07T19:40:00.906Z,4.40
2018-11-07T19:42:32.868Z,4.00
2018-11-07T19:45:06.075Z,4.45
2018-11-07T19:47:38.426Z,5.80
2018-11-07T19:50:11.752Z,6.57
2018-11-07T19:52:43.778Z,4.12
2018-11-07T19:55:17.617Z,2.67
2018-11-07T19:57:50.280Z,3.40
2018-11-07T20:00:22.187Z,7.25
2018-11-07T20:02:54.071Z,6.17
2018-11-07T20:05:26.041Z,4.75
2018-11-07T20:07:58.024Z,4.50
2018-11-07T20:10:30.003Z,6.20
2018-11-07T20:13:01.843Z,5.15
2018-11-07T20:15:33.742Z,4.25
2018-11-07T20:18:05.622Z,4.58
2018-11-07T20:20:37.510Z,5.17
2018-11-07T20:23:09.524Z,4.62
2018-11-07T20:25:41.398Z,4.75
2018-11-07T20:28:13.315Z,5.42
2018-11-07T20:30:45.215Z,4.00
2018-11-07T20:33:17.070Z,3.92
2018-11-07T20:35:49.089Z,6.95
2018-11-07T20:38:20.880Z,4.80
2018-11-07T20:40:52.717Z,3.80
2018-11-07T20:43:24.584Z,3.95
2018-11-07T20:45:56.426Z,5.00
2018-11-07T20:48:28.282Z,4.28
2018-11-07T20:51:00.155Z,3.37
2018-11-07T20:53:32.056Z,6.50
2018-11-07T20:56:03.980Z,3.85
2018-11-07T20:58:35.898Z,3.17
2018-11-07T21:01:07.846Z,4.30
2018-11-07T21:03:39.750Z,5.73
2018-11-07T21:06:11.635Z,5.62
2018-11-07T21:08:43.531Z,4.47
2018-11-07T21:11:15.390Z,2.52
2018-11-07T21:13:47.268Z,3.47
2018-11-07T21:16:19.132Z,3.22
2018-11-07T21:18:51.115Z,3.05
2018-11-07T21:21:22.943Z,4.72
2018-11-07T21:23:55.016Z,4.55
2018-11-07T21:26:26.934Z,3.92
2018-11-07T21:28:59.137Z,6.10
2018-11-07T21:31:31.026Z,4.65
2018-11-07T21:34:02.992Z,3.27
2018-11-07T21:36:34.870Z,2.65
2018-11-07T21:39:07.678Z,3.10
2018-11-07T21:41:40.061Z,3.45
2018-11-07T21:44:11.931Z,3.58
2018-11-07T21:46:43.802Z,6.15
2018-11-07T21:49:15.715Z,4.30
2018-11-07T21:51:47.610Z,3.83
2018-11-07T21:54:19.455Z,6.05
2018-11-07T21:56:51.347Z,7.50
2018-11-07T21:59:23.297Z,3.70
2018-11-07T22:01:55.188Z,3.10
2018-11-07T22:04:27.111Z,3.02
2018-11-07T22:06:59.011Z,2.65
2018-11-07T22:09:30.868Z,2.80
2018-11-07T22:12:02.773Z,3.10
2018-11-07T22:14:34.656Z,2.80
2018-11-07T22:17:06.533Z,2.80
2018-11-07T22:19:38.441Z,3.67
2018-11-07T22:22:10.307Z,2.90
2018-11-07T22:24:42.197Z,3.02
2018-11-07T22:27:14.046Z,3.05
2018-11-07T22:29:46.025Z,4.23
2018-11-07T22:32:17.936Z,5.97
2018-11-07T22:34:49.879Z,2.33
2018-11-07T22:37:21.720Z,4.45
2018-11-07T22:39:53.615Z,4.97
2018-11-07T22:42:25.550Z,5.45
2018-11-07T22:44:57.390Z,4.53
2018-11-07T22:47:29.280Z,3.40
2018-11-07T22:50:01.202Z,2.98
2018-11-07T22:52:33.167Z,3.77
2018-11-07T22:55:05.639Z,5.55
2018-11-07T22:57:37.888Z,3.67
2018-11-07T23:00:18.349Z,6.35
2018-11-07T23:02:52.606Z,3.62
2018-11-07T23:05:24.507Z,3.23
2018-11-07T23:07:57.061Z,3.60
2018-11-07T23:10:28.956Z,4.78
2018-11-07T23:13:00.828Z,3.45
2018-11-07T23:15:38.211Z,5.28
2018-11-07T23:18:10.100Z,2.90
2018-11-07T23:20:42.028Z,6.00
2018-11-07T23:23:14.409Z,5.30
2018-11-07T23:25:46.561Z,3.92
2018-11-07T23:28:18.502Z,4.33
2018-11-07T23:30:50.373Z,4.03
2018-11-07T23:33:22.215Z,3.75
2018-11-07T23:35:54.143Z,6.70
2018-11-07T23:38:26.015Z,6.03
2018-11-07T23:40:57.866Z,3.35
2018-11-07T23:43:29.726Z,4.28
2018-11-07T23:46:01.621Z,3.95
2018-11-07T23:48:33.468Z,4.20
2018-11-07T23:51:05.323Z,4.12
2018-11-07T23:53:37.191Z,5.05
2018-11-07T23:56:09.171Z,4.15
2018-11-07T23:58:40.985Z,4.62
